Terminal Aerodrome Forecast
Issued by NWS

Home | Current Version | Previous Version | Text Only | Print | Product List | Glossary On
Versions: 1 2 3 4 5 6 7 8 9 10 11 12 13 14 15 16 17 18 19 20 21 22 23 24 25 26 27 28 29 30 31 32 33 34 35 36 37 38 39 40 41 42 43 44 45 46 47 48 49 50
370
FTUS42 KGSP 021021 AAB
TAFHKY
TAF AMD
KHKY 021021Z 0210/0306 VRB04KT 6SM BR SCT006 BKN120
      TEMPO 0210/0211 2SM BR BKN006
     FM021200 22004KT P6SM SCT060 BKN130
     FM021800 22011G18KT P6SM -TSRA OVC040CB
     FM030000 21008KT P6SM VCSH OVC100=

USA.gov is the U.S. government's official web portal to all federal, state and local government web resources and services.